sensor_id;sensor_type;location;lat;lon;timestamp;P1;durP1;ratioP1;P2;durP2;ratioP2
42200;SDS011;27869;51.442;7.540;2022-10-16T00:01:04;16.08;;;2.10;;
42200;SDS011;27869;51.442;7.540;2022-10-16T00:03:32;14.88;;;2.35;;
42200;SDS011;27869;51.442;7.540;2022-10-16T00:05:59;7.15;;;1.80;;
42200;SDS011;27869;51.442;7.540;2022-10-16T00:08:27;11.10;;;2.00;;
42200;SDS011;27869;51.442;7.540;2022-10-16T00:10:58;8.32;;;2.25;;
42200;SDS011;27869;51.442;7.540;2022-10-16T00:13:27;14.52;;;1.85;;
42200;SDS011;27869;51.442;7.540;2022-10-16T00:15:54;10.43;;;1.85;;
42200;SDS011;27869;51.442;7.540;2022-10-16T00:18:22;7.10;;;1.75;;
42200;SDS011;27869;51.442;7.540;2022-10-16T00:20:48;7.82;;;2.00;;
42200;SDS011;27869;51.442;7.540;2022-10-16T00:23:15;7.82;;;1.70;;
42200;SDS011;27869;51.442;7.540;2022-10-16T00:25:42;9.73;;;1.90;;
42200;SDS011;27869;51.442;7.540;2022-10-16T00:28:09;7.32;;;1.92;;
42200;SDS011;27869;51.442;7.540;2022-10-16T00:30:38;14.98;;;1.85;;
42200;SDS011;27869;51.442;7.540;2022-10-16T00:33:05;9.30;;;1.70;;
42200;SDS011;27869;51.442;7.540;2022-10-16T00:35:32;10.52;;;1.70;;
42200;SDS011;27869;51.442;7.540;2022-10-16T00:37:59;10.68;;;1.75;;
42200;SDS011;27869;51.442;7.540;2022-10-16T00:40:26;13.82;;;1.90;;
42200;SDS011;27869;51.442;7.540;2022-10-16T00:42:54;6.90;;;1.67;;
42200;SDS011;27869;51.442;7.540;2022-10-16T00:45:21;9.73;;;1.80;;
42200;SDS011;27869;51.442;7.540;2022-10-16T00:47:49;11.90;;;1.80;;
42200;SDS011;27869;51.442;7.540;2022-10-16T00:50:18;7.43;;;1.90;;
42200;SDS011;27869;51.442;7.540;2022-10-16T00:52:50;8.50;;;1.92;;
42200;SDS011;27869;51.442;7.540;2022-10-16T00:55:18;9.52;;;2.25;;
42200;SDS011;27869;51.442;7.540;2022-10-16T00:57:45;8.85;;;1.92;;
42200;SDS011;27869;51.442;7.540;2022-10-16T01:00:14;9.55;;;1.90;;
42200;SDS011;27869;51.442;7.540;2022-10-16T01:02:52;7.35;;;1.75;;
42200;SDS011;27869;51.442;7.540;2022-10-16T01:05:20;8.63;;;1.70;;
42200;SDS011;27869;51.442;7.540;2022-10-16T01:07:49;15.85;;;2.30;;
42200;SDS011;27869;51.442;7.540;2022-10-16T01:10:26;15.20;;;1.80;;
42200;SDS011;27869;51.442;7.540;2022-10-16T01:13:02;11.40;;;2.08;;
42200;SDS011;27869;51.442;7.540;2022-10-16T01:15:33;10.73;;;1.75;;
42200;SDS011;27869;51.442;7.540;2022-10-16T01:18:05;5.38;;;1.70;;
42200;SDS011;27869;51.442;7.540;2022-10-16T01:20:37;9.85;;;1.45;;
42200;SDS011;27869;51.442;7.540;2022-10-16T01:23:15;6.20;;;1.63;;
42200;SDS011;27869;51.442;7.540;2022-10-16T01:25:55;10.45;;;1.80;;
42200;SDS011;27869;51.442;7.540;2022-10-16T01:28:34;5.85;;;1.50;;
42200;SDS011;27869;51.442;7.540;2022-10-16T01:31:05;4.70;;;1.35;;
42200;SDS011;27869;51.442;7.540;2022-10-16T01:33:34;3.67;;;1.35;;
42200;SDS011;27869;51.442;7.540;2022-10-16T01:36:06;4.97;;;1.25;;
42200;SDS011;27869;51.442;7.540;2022-10-16T01:38:38;7.00;;;1.60;;
42200;SDS011;27869;51.442;7.540;2022-10-16T01:41:07;4.88;;;1.20;;
42200;SDS011;27869;51.442;7.540;2022-10-16T01:43:39;4.40;;;1.42;;
42200;SDS011;27869;51.442;7.540;2022-10-16T01:46:11;6.20;;;1.30;;
42200;SDS011;27869;51.442;7.540;2022-10-16T01:48:41;5.70;;;1.83;;
42200;SDS011;27869;51.442;7.540;2022-10-16T01:51:09;10.77;;;1.45;;
42200;SDS011;27869;51.442;7.540;2022-10-16T01:53:38;5.13;;;1.27;;
42200;SDS011;27869;51.442;7.540;2022-10-16T01:56:06;5.95;;;1.40;;
42200;SDS011;27869;51.442;7.540;2022-10-16T01:58:37;8.30;;;1.50;;
42200;SDS011;27869;51.442;7.540;2022-10-16T02:01:09;4.07;;;1.40;;
42200;SDS011;27869;51.442;7.540;2022-10-16T02:03:40;4.85;;;1.27;;
42200;SDS011;27869;51.442;7.540;2022-10-16T02:06:09;6.10;;;1.38;;
42200;SDS011;27869;51.442;7.540;2022-10-16T02:08:36;4.45;;;1.40;;
42200;SDS011;27869;51.442;7.540;2022-10-16T02:11:05;8.77;;;1.60;;
42200;SDS011;27869;51.442;7.540;2022-10-16T02:13:33;8.40;;;1.60;;
42200;SDS011;27869;51.442;7.540;2022-10-16T02:16:05;10.57;;;1.45;;
42200;SDS011;27869;51.442;7.540;2022-10-16T02:18:33;10.32;;;1.50;;
42200;SDS011;27869;51.442;7.540;2022-10-16T02:21:01;7.95;;;1.70;;
42200;SDS011;27869;51.442;7.540;2022-10-16T02:23:35;5.20;;;1.33;;
42200;SDS011;27869;51.442;7.540;2022-10-16T02:26:07;6.47;;;1.33;;
42200;SDS011;27869;51.442;7.540;2022-10-16T02:28:38;6.57;;;1.85;;
42200;SDS011;27869;51.442;7.540;2022-10-16T02:31:12;4.05;;;1.27;;
42200;SDS011;27869;51.442;7.540;2022-10-16T02:33:44;5.60;;;1.48;;
42200;SDS011;27869;51.442;7.540;2022-10-16T02:36:12;4.50;;;1.33;;
42200;SDS011;27869;51.442;7.540;2022-10-16T02:38:39;6.53;;;1.50;;
42200;SDS011;27869;51.442;7.540;2022-10-16T02:41:06;3.80;;;1.27;;
42200;SDS011;27869;51.442;7.540;2022-10-16T02:43:33;7.10;;;1.60;;
42200;SDS011;27869;51.442;7.540;2022-10-16T02:46:00;4.75;;;1.35;;
42200;SDS011;27869;51.442;7.540;2022-10-16T02:48:29;6.55;;;1.33;;
42200;SDS011;27869;51.442;7.540;2022-10-16T02:50:56;6.07;;;1.52;;
42200;SDS011;27869;51.442;7.540;2022-10-16T02:53:22;7.32;;;1.40;;
42200;SDS011;27869;51.442;7.540;2022-10-16T02:55:49;5.38;;;1.60;;
42200;SDS011;27869;51.442;7.540;2022-10-16T02:58:16;6.50;;;1.20;;
42200;SDS011;27869;51.442;7.540;2022-10-16T03:00:43;4.95;;;1.30;;
42200;SDS011;27869;51.442;7.540;2022-10-16T03:03:10;5.43;;;1.33;;
42200;SDS011;27869;51.442;7.540;2022-10-16T03:05:39;5.10;;;1.40;;
42200;SDS011;27869;51.442;7.540;2022-10-16T03:08:06;6.20;;;1.38;;
42200;SDS011;27869;51.442;7.540;2022-10-16T03:10:32;6.53;;;1.48;;
42200;SDS011;27869;51.442;7.540;2022-10-16T03:12:59;6.45;;;1.90;;
42200;SDS011;27869;51.442;7.540;2022-10-16T03:15:26;4.13;;;1.17;;
42200;SDS011;27869;51.442;7.540;2022-10-16T03:17:54;4.78;;;1.70;;
42200;SDS011;27869;51.442;7.540;2022-10-16T03:20:21;6.70;;;1.60;;
42200;SDS011;27869;51.442;7.540;2022-10-16T03:22:49;4.75;;;1.40;;
42200;SDS011;27869;51.442;7.540;2022-10-16T03:25:16;4.55;;;1.23;;
42200;SDS011;27869;51.442;7.540;2022-10-16T03:27:43;5.68;;;1.33;;
42200;SDS011;27869;51.442;7.540;2022-10-16T03:30:10;5.78;;;1.58;;
42200;SDS011;27869;51.442;7.540;2022-10-16T03:32:37;2.95;;;1.30;;
42200;SDS011;27869;51.442;7.540;2022-10-16T03:35:04;4.07;;;1.27;;
42200;SDS011;27869;51.442;7.540;2022-10-16T03:37:32;3.03;;;1.17;;
42200;SDS011;27869;51.442;7.540;2022-10-16T03:40:00;3.33;;;1.02;;
42200;SDS011;27869;51.442;7.540;2022-10-16T03:42:27;5.18;;;1.20;;
42200;SDS011;27869;51.442;7.540;2022-10-16T03:44:54;7.85;;;1.42;;
42200;SDS011;27869;51.442;7.540;2022-10-16T03:47:21;6.15;;;1.35;;
42200;SDS011;27869;51.442;7.540;2022-10-16T03:49:48;6.18;;;1.42;;
42200;SDS011;27869;51.442;7.540;2022-10-16T03:52:16;4.75;;;1.13;;
42200;SDS011;27869;51.442;7.540;2022-10-16T03:54:43;4.93;;;1.15;;
42200;SDS011;27869;51.442;7.540;2022-10-16T03:57:11;5.10;;;1.20;;
42200;SDS011;27869;51.442;7.540;2022-10-16T03:59:38;4.18;;;1.40;;
42200;SDS011;27869;51.442;7.540;2022-10-16T04:02:05;6.72;;;1.30;;
42200;SDS011;27869;51.442;7.540;2022-10-16T04:04:32;4.25;;;1.30;;
42200;SDS011;27869;51.442;7.540;2022-10-16T04:06:59;5.05;;;1.38;;
42200;SDS011;27869;51.442;7.540;2022-10-16T04:09:26;4.53;;;1.50;;
42200;SDS011;27869;51.442;7.540;2022-10-16T04:11:52;4.63;;;1.25;;
42200;SDS011;27869;51.442;7.540;2022-10-16T04:14:21;3.47;;;1.40;;
42200;SDS011;27869;51.442;7.540;2022-10-16T04:16:48;5.93;;;1.40;;
42200;SDS011;27869;51.442;7.540;2022-10-16T04:19:14;5.18;;;1.33;;
42200;SDS011;27869;51.442;7.540;2022-10-16T04:21:41;5.43;;;1.40;;
42200;SDS011;27869;51.442;7.540;2022-10-16T04:24:08;8.90;;;1.70;;
42200;SDS011;27869;51.442;7.540;2022-10-16T04:26:36;6.97;;;1.33;;
42200;SDS011;27869;51.442;7.540;2022-10-16T04:29:03;4.10;;;1.13;;
42200;SDS011;27869;51.442;7.540;2022-10-16T04:31:32;3.92;;;1.33;;
42200;SDS011;27869;51.442;7.540;2022-10-16T04:33:59;3.33;;;1.20;;
42200;SDS011;27869;51.442;7.540;2022-10-16T04:36:26;3.30;;;1.10;;
42200;SDS011;27869;51.442;7.540;2022-10-16T04:38:53;5.55;;;1.20;;
42200;SDS011;27869;51.442;7.540;2022-10-16T04:41:20;2.13;;;0.90;;
42200;SDS011;27869;51.442;7.540;2022-10-16T04:43:47;4.35;;;1.20;;
42200;SDS011;27869;51.442;7.540;2022-10-16T04:46:13;3.90;;;1.20;;
42200;SDS011;27869;51.442;7.540;2022-10-16T04:48:42;5.65;;;1.00;;
42200;SDS011;27869;51.442;7.540;2022-10-16T04:51:09;5.30;;;1.33;;
42200;SDS011;27869;51.442;7.540;2022-10-16T04:53:35;4.00;;;1.00;;
42200;SDS011;27869;51.442;7.540;2022-10-16T04:56:02;2.50;;;0.93;;
42200;SDS011;27869;51.442;7.540;2022-10-16T04:58:29;6.43;;;1.00;;
42200;SDS011;27869;51.442;7.540;2022-10-16T05:00:56;4.75;;;1.10;;
42200;SDS011;27869;51.442;7.540;2022-10-16T05:03:23;2.97;;;0.90;;
42200;SDS011;27869;51.442;7.540;2022-10-16T05:05:51;2.83;;;0.85;;
42200;SDS011;27869;51.442;7.540;2022-10-16T05:08:18;5.63;;;1.00;;
42200;SDS011;27869;51.442;7.540;2022-10-16T05:10:45;1.58;;;0.77;;
42200;SDS011;27869;51.442;7.540;2022-10-16T05:13:12;2.60;;;0.93;;
42200;SDS011;27869;51.442;7.540;2022-10-16T05:15:39;3.83;;;0.80;;
42200;SDS011;27869;51.442;7.540;2022-10-16T05:18:06;2.63;;;1.00;;
42200;SDS011;27869;51.442;7.540;2022-10-16T05:20:33;6.53;;;1.20;;
42200;SDS011;27869;51.442;7.540;2022-10-16T05:23:01;3.38;;;0.93;;
42200;SDS011;27869;51.442;7.540;2022-10-16T05:25:28;3.17;;;1.10;;
42200;SDS011;27869;51.442;7.540;2022-10-16T05:27:55;7.07;;;0.90;;
42200;SDS011;27869;51.442;7.540;2022-10-16T05:30:22;2.45;;;0.90;;
42200;SDS011;27869;51.442;7.540;2022-10-16T05:32:50;2.75;;;1.00;;
42200;SDS011;27869;51.442;7.540;2022-10-16T05:35:17;3.33;;;0.68;;
42200;SDS011;27869;51.442;7.540;2022-10-16T05:37:45;2.30;;;0.93;;
42200;SDS011;27869;51.442;7.540;2022-10-16T05:40:14;5.93;;;1.10;;
42200;SDS011;27869;51.442;7.540;2022-10-16T05:42:41;4.82;;;1.17;;
42200;SDS011;27869;51.442;7.540;2022-10-16T05:45:09;3.90;;;1.27;;
42200;SDS011;27869;51.442;7.540;2022-10-16T05:47:36;3.35;;;1.02;;
42200;SDS011;27869;51.442;7.540;2022-10-16T05:50:04;4.97;;;0.95;;
42200;SDS011;27869;51.442;7.540;2022-10-16T05:52:31;4.15;;;0.98;;
42200;SDS011;27869;51.442;7.540;2022-10-16T05:54:58;3.10;;;0.88;;
42200;SDS011;27869;51.442;7.540;2022-10-16T05:57:26;6.78;;;1.02;;
42200;SDS011;27869;51.442;7.540;2022-10-16T05:59:53;3.67;;;1.02;;
42200;SDS011;27869;51.442;7.540;2022-10-16T06:02:20;3.42;;;1.20;;
42200;SDS011;27869;51.442;7.540;2022-10-16T06:04:47;5.07;;;1.05;;
42200;SDS011;27869;51.442;7.540;2022-10-16T06:07:14;7.65;;;1.80;;
42200;SDS011;27869;51.442;7.540;2022-10-16T06:09:41;3.92;;;1.15;;
42200;SDS011;27869;51.442;7.540;2022-10-16T06:12:08;5.32;;;1.40;;
42200;SDS011;27869;51.442;7.540;2022-10-16T06:14:36;10.35;;;1.45;;
42200;SDS011;27869;51.442;7.540;2022-10-16T06:17:03;9.63;;;1.42;;
42200;SDS011;27869;51.442;7.540;2022-10-16T06:19:30;3.33;;;1.25;;
42200;SDS011;27869;51.442;7.540;2022-10-16T06:21:57;7.82;;;1.50;;
42200;SDS011;27869;51.442;7.540;2022-10-16T06:24:25;2.97;;;0.98;;
42200;SDS011;27869;51.442;7.540;2022-10-16T06:26:52;4.95;;;1.20;;
42200;SDS011;27869;51.442;7.540;2022-10-16T06:29:18;2.33;;;0.93;;
42200;SDS011;27869;51.442;7.540;2022-10-16T06:31:47;3.97;;;1.20;;
42200;SDS011;27869;51.442;7.540;2022-10-16T06:34:14;2.55;;;0.98;;
42200;SDS011;27869;51.442;7.540;2022-10-16T06:36:41;7.38;;;1.00;;
42200;SDS011;27869;51.442;7.540;2022-10-16T06:39:08;3.30;;;0.77;;
42200;SDS011;27869;51.442;7.540;2022-10-16T06:41:35;4.63;;;1.30;;
42200;SDS011;27869;51.442;7.540;2022-10-16T06:44:04;1.75;;;0.82;;
42200;SDS011;27869;51.442;7.540;2022-10-16T06:48:59;5.00;;;1.00;;
42200;SDS011;27869;51.442;7.540;2022-10-16T06:51:26;4.00;;;1.17;;
42200;SDS011;27869;51.442;7.540;2022-10-16T06:53:54;3.88;;;1.40;;
42200;SDS011;27869;51.442;7.540;2022-10-16T06:56:23;3.45;;;1.00;;
42200;SDS011;27869;51.442;7.540;2022-10-16T07:01:19;3.40;;;1.23;;
42200;SDS011;27869;51.442;7.540;2022-10-16T07:03:47;2.88;;;1.02;;
42200;SDS011;27869;51.442;7.540;2022-10-16T07:06:17;6.10;;;1.15;;
42200;SDS011;27869;51.442;7.540;2022-10-16T07:08:45;2.15;;;0.93;;
42200;SDS011;27869;51.442;7.540;2022-10-16T07:11:14;5.97;;;1.10;;
42200;SDS011;27869;51.442;7.540;2022-10-16T07:13:44;5.85;;;1.30;;
42200;SDS011;27869;51.442;7.540;2022-10-16T07:16:12;5.30;;;1.30;;
42200;SDS011;27869;51.442;7.540;2022-10-16T07:21:10;4.30;;;0.82;;
42200;SDS011;27869;51.442;7.540;2022-10-16T07:23:40;5.35;;;1.02;;
42200;SDS011;27869;51.442;7.540;2022-10-16T07:26:07;3.20;;;1.10;;
42200;SDS011;27869;51.442;7.540;2022-10-16T07:28:34;3.67;;;1.15;;
42200;SDS011;27869;51.442;7.540;2022-10-16T07:31:02;3.83;;;1.10;;
42200;SDS011;27869;51.442;7.540;2022-10-16T07:33:30;3.95;;;1.30;;
42200;SDS011;27869;51.442;7.540;2022-10-16T07:35:57;4.53;;;0.93;;
42200;SDS011;27869;51.442;7.540;2022-10-16T07:38:24;2.00;;;0.90;;
42200;SDS011;27869;51.442;7.540;2022-10-16T07:40:57;3.17;;;1.00;;
42200;SDS011;27869;51.442;7.540;2022-10-16T07:43:24;3.20;;;1.20;;
42200;SDS011;27869;51.442;7.540;2022-10-16T07:45:51;3.22;;;1.00;;
42200;SDS011;27869;51.442;7.540;2022-10-16T07:48:19;3.78;;;1.17;;
42200;SDS011;27869;51.442;7.540;2022-10-16T07:50:46;6.38;;;1.40;;
42200;SDS011;27869;51.442;7.540;2022-10-16T07:53:13;3.53;;;0.98;;
42200;SDS011;27869;51.442;7.540;2022-10-16T07:55:40;3.80;;;1.00;;
42200;SDS011;27869;51.442;7.540;2022-10-16T07:58:09;4.78;;;1.10;;
42200;SDS011;27869;51.442;7.540;2022-10-16T08:00:36;4.72;;;1.10;;
42200;SDS011;27869;51.442;7.540;2022-10-16T08:03:03;5.63;;;1.20;;
42200;SDS011;27869;51.442;7.540;2022-10-16T08:05:31;4.47;;;1.20;;
42200;SDS011;27869;51.442;7.540;2022-10-16T08:07:59;4.10;;;1.15;;
42200;SDS011;27869;51.442;7.540;2022-10-16T08:10:26;7.38;;;1.20;;
42200;SDS011;27869;51.442;7.540;2022-10-16T08:12:54;3.58;;;1.13;;
42200;SDS011;27869;51.442;7.540;2022-10-16T08:15:23;2.85;;;0.90;;
42200;SDS011;27869;51.442;7.540;2022-10-16T08:17:59;3.22;;;1.08;;
42200;SDS011;27869;51.442;7.540;2022-10-16T08:20:28;5.20;;;1.20;;
42200;SDS011;27869;51.442;7.540;2022-10-16T08:22:55;5.60;;;1.13;;
42200;SDS011;27869;51.442;7.540;2022-10-16T08:25:23;2.30;;;0.90;;
42200;SDS011;27869;51.442;7.540;2022-10-16T08:27:50;5.03;;;1.00;;
42200;SDS011;27869;51.442;7.540;2022-10-16T08:30:17;6.95;;;1.20;;
42200;SDS011;27869;51.442;7.540;2022-10-16T08:32:47;1.88;;;0.90;;
42200;SDS011;27869;51.442;7.540;2022-10-16T08:35:14;1.77;;;0.80;;
42200;SDS011;27869;51.442;7.540;2022-10-16T08:37:42;3.45;;;1.15;;
42200;SDS011;27869;51.442;7.540;2022-10-16T08:40:13;5.78;;;0.98;;
42200;SDS011;27869;51.442;7.540;2022-10-16T08:45:21;6.95;;;1.20;;
42200;SDS011;27869;51.442;7.540;2022-10-16T08:48:08;3.17;;;1.02;;
42200;SDS011;27869;51.442;7.540;2022-10-16T08:50:42;3.30;;;0.90;;
42200;SDS011;27869;51.442;7.540;2022-10-16T08:53:10;3.70;;;1.00;;
42200;SDS011;27869;51.442;7.540;2022-10-16T08:55:43;5.65;;;1.10;;
42200;SDS011;27869;51.442;7.540;2022-10-16T08:58:15;4.35;;;0.95;;
42200;SDS011;27869;51.442;7.540;2022-10-16T09:00:46;2.30;;;0.95;;
42200;SDS011;27869;51.442;7.540;2022-10-16T09:03:23;4.25;;;1.00;;
42200;SDS011;27869;51.442;7.540;2022-10-16T09:06:10;4.78;;;0.77;;
42200;SDS011;27869;51.442;7.540;2022-10-16T09:08:50;9.10;;;0.95;;
42200;SDS011;27869;51.442;7.540;2022-10-16T09:11:27;2.47;;;0.60;;
42200;SDS011;27869;51.442;7.540;2022-10-16T09:14:07;5.88;;;0.80;;
42200;SDS011;27869;51.442;7.540;2022-10-16T09:16:51;7.90;;;1.00;;
42200;SDS011;27869;51.442;7.540;2022-10-16T09:19:24;4.10;;;0.70;;
42200;SDS011;27869;51.442;7.540;2022-10-16T09:21:59;2.80;;;0.75;;
42200;SDS011;27869;51.442;7.540;2022-10-16T09:24:27;4.30;;;0.80;;
42200;SDS011;27869;51.442;7.540;2022-10-16T09:26:56;4.72;;;0.82;;
42200;SDS011;27869;51.442;7.540;2022-10-16T09:29:22;7.00;;;1.02;;
42200;SDS011;27869;51.442;7.540;2022-10-16T09:31:50;3.50;;;0.70;;
42200;SDS011;27869;51.442;7.540;2022-10-16T09:34:21;3.53;;;0.88;;
42200;SDS011;27869;51.442;7.540;2022-10-16T09:36:55;4.63;;;0.80;;
42200;SDS011;27869;51.442;7.540;2022-10-16T09:39:24;4.50;;;1.00;;
42200;SDS011;27869;51.442;7.540;2022-10-16T09:41:51;3.33;;;0.77;;
42200;SDS011;27869;51.442;7.540;2022-10-16T09:44:21;5.40;;;1.00;;
42200;SDS011;27869;51.442;7.540;2022-10-16T09:47:00;2.55;;;0.60;;
42200;SDS011;27869;51.442;7.540;2022-10-16T09:49:29;6.60;;;0.80;;
42200;SDS011;27869;51.442;7.540;2022-10-16T09:52:02;3.15;;;0.80;;
42200;SDS011;27869;51.442;7.540;2022-10-16T09:54:30;4.22;;;0.77;;
42200;SDS011;27869;51.442;7.540;2022-10-16T09:57:04;2.97;;;0.75;;
42200;SDS011;27869;51.442;7.540;2022-10-16T09:59:31;3.47;;;0.80;;
42200;SDS011;27869;51.442;7.540;2022-10-16T10:02:01;3.85;;;0.73;;
42200;SDS011;27869;51.442;7.540;2022-10-16T10:04:38;3.22;;;0.50;;
42200;SDS011;27869;51.442;7.540;2022-10-16T10:07:15;6.70;;;1.65;;
42200;SDS011;27869;51.442;7.540;2022-10-16T10:09:45;3.78;;;0.70;;
42200;SDS011;27869;51.442;7.540;2022-10-16T10:12:18;3.60;;;0.70;;
42200;SDS011;27869;51.442;7.540;2022-10-16T10:14:48;4.30;;;0.68;;
42200;SDS011;27869;51.442;7.540;2022-10-16T10:17:18;3.13;;;0.70;;
42200;SDS011;27869;51.442;7.540;2022-10-16T10:19:48;5.53;;;0.80;;
42200;SDS011;27869;51.442;7.540;2022-10-16T10:22:17;2.85;;;0.70;;
42200;SDS011;27869;51.442;7.540;2022-10-16T10:24:56;3.30;;;0.60;;
42200;SDS011;27869;51.442;7.540;2022-10-16T10:27:39;4.25;;;0.70;;
42200;SDS011;27869;51.442;7.540;2022-10-16T10:30:15;3.67;;;0.80;;
42200;SDS011;27869;51.442;7.540;2022-10-16T10:32:47;4.32;;;0.70;;
42200;SDS011;27869;51.442;7.540;2022-10-16T10:35:27;6.82;;;0.80;;
42200;SDS011;27869;51.442;7.540;2022-10-16T10:38:06;5.68;;;0.85;;
42200;SDS011;27869;51.442;7.540;2022-10-16T10:40:45;4.82;;;0.77;;
42200;SDS011;27869;51.442;7.540;2022-10-16T10:43:20;5.90;;;1.02;;
42200;SDS011;27869;51.442;7.540;2022-10-16T10:45:57;3.63;;;0.85;;
42200;SDS011;27869;51.442;7.540;2022-10-16T10:51:27;4.43;;;0.80;;
42200;SDS011;27869;51.442;7.540;2022-10-16T10:54:03;3.20;;;0.60;;
42200;SDS011;27869;51.442;7.540;2022-10-16T10:56:41;3.80;;;0.70;;
42200;SDS011;27869;51.442;7.540;2022-10-16T11:02:15;7.10;;;0.82;;
42200;SDS011;27869;51.442;7.540;2022-10-16T11:08:00;5.72;;;0.98;;
42200;SDS011;27869;51.442;7.540;2022-10-16T11:10:32;5.75;;;1.00;;
42200;SDS011;27869;51.442;7.540;2022-10-16T11:13:10;3.85;;;0.88;;
42200;SDS011;27869;51.442;7.540;2022-10-16T11:15:47;4.05;;;0.95;;
42200;SDS011;27869;51.442;7.540;2022-10-16T11:18:18;3.20;;;0.73;;
42200;SDS011;27869;51.442;7.540;2022-10-16T11:20:49;3.30;;;0.70;;
42200;SDS011;27869;51.442;7.540;2022-10-16T11:23:21;6.22;;;0.82;;
42200;SDS011;27869;51.442;7.540;2022-10-16T11:25:51;1.35;;;0.45;;
42200;SDS011;27869;51.442;7.540;2022-10-16T11:28:20;3.05;;;0.68;;
42200;SDS011;27869;51.442;7.540;2022-10-16T11:30:54;4.30;;;0.63;;
42200;SDS011;27869;51.442;7.540;2022-10-16T11:33:27;4.85;;;0.90;;
42200;SDS011;27869;51.442;7.540;2022-10-16T11:36:00;2.65;;;0.88;;
42200;SDS011;27869;51.442;7.540;2022-10-16T11:38:37;1.83;;;0.55;;
42200;SDS011;27869;51.442;7.540;2022-10-16T11:41:10;2.78;;;0.70;;
42200;SDS011;27869;51.442;7.540;2022-10-16T11:43:46;5.97;;;0.95;;
42200;SDS011;27869;51.442;7.540;2022-10-16T11:46:19;6.03;;;0.75;;
42200;SDS011;27869;51.442;7.540;2022-10-16T11:48:50;3.78;;;0.85;;
42200;SDS011;27869;51.442;7.540;2022-10-16T11:51:22;4.75;;;0.63;;
42200;SDS011;27869;51.442;7.540;2022-10-16T11:53:58;4.00;;;0.73;;
42200;SDS011;27869;51.442;7.540;2022-10-16T11:56:31;4.57;;;1.00;;
42200;SDS011;27869;51.442;7.540;2022-10-16T11:59:02;5.28;;;0.60;;
42200;SDS011;27869;51.442;7.540;2022-10-16T12:01:37;4.18;;;0.73;;
42200;SDS011;27869;51.442;7.540;2022-10-16T12:04:15;4.40;;;0.80;;
42200;SDS011;27869;51.442;7.540;2022-10-16T12:06:48;4.13;;;0.82;;
42200;SDS011;27869;51.442;7.540;2022-10-16T12:09:24;3.97;;;0.70;;
42200;SDS011;27869;51.442;7.540;2022-10-16T12:11:54;3.17;;;0.60;;
42200;SDS011;27869;51.442;7.540;2022-10-16T12:14:22;5.32;;;0.80;;
42200;SDS011;27869;51.442;7.540;2022-10-16T12:17:01;2.78;;;0.82;;
42200;SDS011;27869;51.442;7.540;2022-10-16T12:19:30;6.07;;;0.90;;
42200;SDS011;27869;51.442;7.540;2022-10-16T12:21:59;5.47;;;0.90;;
42200;SDS011;27869;51.442;7.540;2022-10-16T12:24:33;4.00;;;0.80;;
42200;SDS011;27869;51.442;7.540;2022-10-16T12:27:02;3.47;;;0.80;;
42200;SDS011;27869;51.442;7.540;2022-10-16T12:29:35;5.85;;;0.77;;
42200;SDS011;27869;51.442;7.540;2022-10-16T12:32:04;3.15;;;0.57;;
42200;SDS011;27869;51.442;7.540;2022-10-16T12:34:44;3.47;;;0.63;;
42200;SDS011;27869;51.442;7.540;2022-10-16T12:37:13;3.15;;;0.73;;
42200;SDS011;27869;51.442;7.540;2022-10-16T12:39:48;4.80;;;0.80;;
42200;SDS011;27869;51.442;7.540;2022-10-16T12:42:23;5.00;;;0.63;;
42200;SDS011;27869;51.442;7.540;2022-10-16T12:44:58;5.00;;;0.75;;
42200;SDS011;27869;51.442;7.540;2022-10-16T12:47:35;5.03;;;0.80;;
42200;SDS011;27869;51.442;7.540;2022-10-16T12:52:50;4.40;;;0.40;;
42200;SDS011;27869;51.442;7.540;2022-10-16T12:55:19;3.70;;;0.65;;
42200;SDS011;27869;51.442;7.540;2022-10-16T12:57:53;5.70;;;0.73;;
42200;SDS011;27869;51.442;7.540;2022-10-16T13:00:32;5.53;;;0.95;;
42200;SDS011;27869;51.442;7.540;2022-10-16T13:03:22;1.77;;;0.60;;
42200;SDS011;27869;51.442;7.540;2022-10-16T13:06:13;4.80;;;0.70;;
42200;SDS011;27869;51.442;7.540;2022-10-16T13:09:02;1.02;;;0.47;;
42200;SDS011;27869;51.442;7.540;2022-10-16T13:11:46;3.75;;;0.60;;
42200;SDS011;27869;51.442;7.540;2022-10-16T13:14:27;3.58;;;0.68;;
42200;SDS011;27869;51.442;7.540;2022-10-16T13:17:09;2.97;;;0.50;;
42200;SDS011;27869;51.442;7.540;2022-10-16T13:19:44;5.60;;;0.70;;
42200;SDS011;27869;51.442;7.540;2022-10-16T13:22:19;1.95;;;0.45;;
42200;SDS011;27869;51.442;7.540;2022-10-16T13:24:55;4.07;;;0.57;;
42200;SDS011;27869;51.442;7.540;2022-10-16T13:27:33;3.83;;;0.70;;
42200;SDS011;27869;51.442;7.540;2022-10-16T13:30:10;4.43;;;0.45;;
42200;SDS011;27869;51.442;7.540;2022-10-16T13:32:40;4.20;;;0.85;;
42200;SDS011;27869;51.442;7.540;2022-10-16T13:35:20;3.42;;;0.68;;
42200;SDS011;27869;51.442;7.540;2022-10-16T13:37:49;1.73;;;0.40;;
42200;SDS011;27869;51.442;7.540;2022-10-16T13:40:20;8.13;;;1.55;;
42200;SDS011;27869;51.442;7.540;2022-10-16T13:42:50;3.25;;;0.77;;
42200;SDS011;27869;51.442;7.540;2022-10-16T13:45:19;5.90;;;0.80;;
42200;SDS011;27869;51.442;7.540;2022-10-16T13:47:47;4.18;;;0.85;;
42200;SDS011;27869;51.442;7.540;2022-10-16T13:50:14;4.03;;;0.80;;
42200;SDS011;27869;51.442;7.540;2022-10-16T13:52:44;5.72;;;0.70;;
42200;SDS011;27869;51.442;7.540;2022-10-16T13:55:11;3.50;;;0.70;;
42200;SDS011;27869;51.442;7.540;2022-10-16T13:57:38;3.25;;;0.68;;
42200;SDS011;27869;51.442;7.540;2022-10-16T14:00:18;2.15;;;0.70;;
42200;SDS011;27869;51.442;7.540;2022-10-16T14:02:49;2.53;;;0.70;;
42200;SDS011;27869;51.442;7.540;2022-10-16T14:05:19;2.95;;;0.65;;
42200;SDS011;27869;51.442;7.540;2022-10-16T14:07:47;1.60;;;0.57;;
42200;SDS011;27869;51.442;7.540;2022-10-16T14:10:20;4.10;;;0.82;;
42200;SDS011;27869;51.442;7.540;2022-10-16T14:13:00;4.68;;;0.60;;
42200;SDS011;27869;51.442;7.540;2022-10-16T14:15:31;5.53;;;1.02;;
42200;SDS011;27869;51.442;7.540;2022-10-16T14:18:00;3.92;;;0.82;;
42200;SDS011;27869;51.442;7.540;2022-10-16T14:20:28;6.55;;;0.70;;
42200;SDS011;27869;51.442;7.540;2022-10-16T14:22:59;6.97;;;0.80;;
42200;SDS011;27869;51.442;7.540;2022-10-16T14:25:27;3.40;;;0.70;;
42200;SDS011;27869;51.442;7.540;2022-10-16T14:28:02;6.30;;;0.90;;
42200;SDS011;27869;51.442;7.540;2022-10-16T14:30:33;2.45;;;0.68;;
42200;SDS011;27869;51.442;7.540;2022-10-16T14:33:02;7.22;;;0.80;;
42200;SDS011;27869;51.442;7.540;2022-10-16T14:35:31;3.28;;;0.63;;
42200;SDS011;27869;51.442;7.540;2022-10-16T14:40:29;4.45;;;0.80;;
42200;SDS011;27869;51.442;7.540;2022-10-16T14:42:57;3.13;;;0.90;;
42200;SDS011;27869;51.442;7.540;2022-10-16T14:45:26;4.03;;;0.90;;
42200;SDS011;27869;51.442;7.540;2022-10-16T14:47:57;3.15;;;0.70;;
42200;SDS011;27869;51.442;7.540;2022-10-16T14:50:26;3.08;;;0.77;;
42200;SDS011;27869;51.442;7.540;2022-10-16T14:52:53;1.73;;;0.73;;
42200;SDS011;27869;51.442;7.540;2022-10-16T14:55:21;1.63;;;0.70;;
42200;SDS011;27869;51.442;7.540;2022-10-16T14:57:48;2.17;;;0.68;;
42200;SDS011;27869;51.442;7.540;2022-10-16T15:00:16;4.75;;;0.75;;
42200;SDS011;27869;51.442;7.540;2022-10-16T15:02:45;6.03;;;1.15;;
42200;SDS011;27869;51.442;7.540;2022-10-16T15:05:17;4.70;;;0.90;;
42200;SDS011;27869;51.442;7.540;2022-10-16T15:07:45;6.65;;;1.13;;
42200;SDS011;27869;51.442;7.540;2022-10-16T15:10:14;3.38;;;0.95;;
42200;SDS011;27869;51.442;7.540;2022-10-16T15:12:42;6.35;;;1.30;;
42200;SDS011;27869;51.442;7.540;2022-10-16T15:15:15;8.90;;;0.90;;
42200;SDS011;27869;51.442;7.540;2022-10-16T15:17:51;7.03;;;1.13;;
42200;SDS011;27869;51.442;7.540;2022-10-16T15:20:22;8.82;;;1.17;;
42200;SDS011;27869;51.442;7.540;2022-10-16T15:22:50;3.88;;;1.00;;
42200;SDS011;27869;51.442;7.540;2022-10-16T15:25:25;7.18;;;1.15;;
42200;SDS011;27869;51.442;7.540;2022-10-16T15:27:56;6.43;;;1.25;;
42200;SDS011;27869;51.442;7.540;2022-10-16T15:30:23;4.57;;;1.08;;